Time;durP1;ratioP1;P1;durP2;ratioP2;P2;SDS_P1;SDS_P2;PMS_P1;PMS_P2;Temp;Humidity;BMP_temperature;BMP_pressure;BME280_temperature;BME280_humidity;BME280_pressure;Samples;Min_cycle;Max_cycle;Signal;HPM_P1;HPM_P2
2021/12/10 00:02:11;;;;;;;19.38;9.40;;;;;;;-146.48;100.00;60459.00;5347709;27;20072;-69
2021/12/10 00:04:44;;;;;;;16.42;9.32;;;;;;;-146.48;100.00;60459.00;5345291;27;20096;-69
2021/12/10 00:07:20;;;;;;;18.27;10.02;;;;;;;-146.48;100.00;60459.00;5347102;27;20023;-69
2021/12/10 00:09:58;;;;;;;23.88;8.95;;;;;;;-146.48;100.00;60459.00;5347679;27;20030;-69
2021/12/10 00:12:49;;;;;;;18.92;7.90;;;;;;;-146.48;100.00;60459.00;5347212;27;20035;-69
2021/12/10 00:15:25;;;;;;;18.38;8.65;;;;;;;-146.48;100.00;60459.00;5348216;27;20462;-69
2021/12/10 00:17:59;;;;;;;17.13;8.60;;;;;;;-146.48;100.00;60459.00;5347426;27;20035;-69
2021/12/10 00:20:34;;;;;;;15.60;6.15;;;;;;;-146.48;100.00;60459.00;5347178;27;20023;-69
2021/12/10 00:23:13;;;;;;;17.65;7.90;;;;;;;-146.48;100.00;60459.00;5347340;27;20024;-69
2021/12/10 00:25:50;;;;;;;11.35;6.38;;;;;;;-146.48;100.00;60459.00;5347534;27;20050;-70
2021/12/10 00:28:28;;;;;;;9.55;5.78;;;;;;;-146.48;100.00;60459.00;5346972;27;20027;-70
2021/12/10 00:31:04;;;;;;;19.98;7.68;;;;;;;-146.48;100.00;60459.00;5347343;27;20060;-70
2021/12/10 00:33:40;;;;;;;11.90;6.22;;;;;;;-146.48;100.00;60459.00;5346738;27;20035;-69
2021/12/10 00:36:12;;;;;;;12.40;5.75;;;;;;;-146.48;100.00;60459.00;5347741;27;20042;-70
2021/12/10 00:38:44;;;;;;;8.05;4.72;;;;;;;-146.48;100.00;60459.00;5347040;27;20057;-69
2021/12/10 00:41:15;;;;;;;14.13;5.65;;;;;;;-146.48;100.00;60459.00;5346902;27;20059;-70
2021/12/10 00:43:47;;;;;;;10.10;3.38;;;;;;;-146.48;100.00;60459.00;5346986;27;20019;-70
2021/12/10 00:46:18;;;;;;;9.07;4.95;;;;;;;-146.48;100.00;60459.00;5347352;27;20023;-69
2021/12/10 00:48:50;;;;;;;10.10;5.15;;;;;;;-146.48;100.00;60459.00;5345942;27;20038;-69
2021/12/10 00:51:21;;;;;;;11.52;4.60;;;;;;;-146.48;100.00;60459.00;5347323;27;20027;-69
2021/12/10 00:53:53;;;;;;;11.82;5.10;;;;;;;-146.48;100.00;60459.00;5346723;27;20019;-69
2021/12/10 00:56:24;;;;;;;12.27;4.75;;;;;;;-146.48;100.00;60459.00;5346414;27;20049;-69
2021/12/10 00:58:56;;;;;;;16.17;4.97;;;;;;;-146.48;100.00;60459.00;5346736;27;20035;-69
2021/12/10 01:01:30;;;;;;;10.95;3.47;;;;;;;-146.48;100.00;60459.00;5346409;27;20023;-69
2021/12/10 01:04:16;;;;;;;8.80;3.75;;;;;;;-146.48;100.00;60459.00;5346576;27;20466;-69
2021/12/10 01:06:50;;;;;;;15.68;4.10;;;;;;;-146.48;100.00;60459.00;5346428;27;20435;-69
2021/12/10 01:09:25;;;;;;;10.70;3.40;;;;;;;-146.48;100.00;60459.00;5346128;27;20023;-69
2021/12/10 01:12:07;;;;;;;8.65;4.15;;;;;;;-146.48;100.00;60459.00;5346387;27;20053;-69
2021/12/10 01:28:54;;;;;;;15.13;4.25;;;;;;;-146.48;100.00;60459.00;5346475;27;20028;-70
2021/12/10 01:31:25;;;;;;;13.25;4.50;;;;;;;-146.48;100.00;60459.00;5345911;27;20023;-70
2021/12/10 01:33:56;;;;;;;9.35;3.78;;;;;;;-146.48;100.00;60459.00;5345940;27;20414;-70
2021/12/10 01:36:28;;;;;;;13.13;3.33;;;;;;;-146.48;100.00;60459.00;5346746;27;20033;-70
2021/12/10 01:39:01;;;;;;;11.20;3.72;;;;;;;-146.48;100.00;60459.00;5345203;27;20058;-70
2021/12/10 01:41:36;;;;;;;10.23;2.65;;;;;;;-146.48;100.00;60459.00;5346428;27;20489;-70
2021/12/10 01:44:16;;;;;;;10.18;3.05;;;;;;;-146.48;100.00;60459.00;5345322;27;20023;-70
2021/12/10 01:46:48;;;;;;;8.13;3.28;;;;;;;-146.48;100.00;60459.00;5345616;27;20063;-70
2021/12/10 01:49:19;;;;;;;9.00;2.58;;;;;;;-146.48;100.00;60459.00;5345862;27;20031;-68
2021/12/10 01:51:51;;;;;;;10.82;2.65;;;;;;;-146.48;100.00;60459.00;5344654;27;20031;-69
2021/12/10 01:54:39;;;;;;;11.07;3.03;;;;;;;-146.48;100.00;60459.00;5345970;27;20076;-69
2021/12/10 01:57:12;;;;;;;12.18;2.67;;;;;;;-146.48;100.00;60459.00;5346043;27;20455;-68
2021/12/10 01:59:45;;;;;;;6.65;2.50;;;;;;;-146.48;100.00;60459.00;5344541;27;20102;-69
2021/12/10 02:02:24;;;;;;;9.38;2.75;;;;;;;-146.48;100.00;60459.00;5346092;27;20088;-69
2021/12/10 02:04:56;;;;;;;7.93;2.57;;;;;;;-146.48;100.00;60459.00;5344706;27;20028;-69
2021/12/10 02:07:27;;;;;;;12.80;2.80;;;;;;;-146.48;100.00;60459.00;5345702;27;20114;-69
2021/12/10 02:09:59;;;;;;;7.85;2.35;;;;;;;-146.48;100.00;60459.00;5345294;27;20094;-68
2021/12/10 02:12:31;;;;;;;8.40;2.60;;;;;;;-146.48;100.00;60459.00;5344998;27;20027;-68
2021/12/10 02:15:04;;;;;;;12.32;3.58;;;;;;;-146.48;100.00;60459.00;5345125;27;20041;-68
2021/12/10 02:17:39;;;;;;;11.68;2.90;;;;;;;-146.48;100.00;60459.00;5345581;27;20095;-69
2021/12/10 02:20:19;;;;;;;5.78;2.05;;;;;;;-146.48;100.00;60459.00;5345119;27;20035;-69
2021/12/10 02:22:51;;;;;;;11.05;2.75;;;;;;;-146.48;100.00;60459.00;5345263;27;20111;-69
2021/12/10 02:25:28;;;;;;;9.05;1.85;;;;;;;-146.48;100.00;60459.00;5345621;27;20031;-69
2021/12/10 02:27:59;;;;;;;8.95;2.28;;;;;;;-146.48;100.00;60459.00;5343741;27;20161;-69
2021/12/10 02:30:31;;;;;;;7.85;1.90;;;;;;;-146.48;100.00;60459.00;5345648;27;20102;-69
2021/12/10 02:33:03;;;;;;;9.10;2.13;;;;;;;-146.48;100.00;60459.00;5343972;27;20050;-69
2021/12/10 02:35:35;;;;;;;8.45;1.45;;;;;;;-146.48;100.00;60459.00;5345071;27;20038;-69
2021/12/10 02:38:07;;;;;;;5.68;1.63;;;;;;;-146.48;100.00;60459.00;5344767;27;20042;-69
2021/12/10 02:40:39;;;;;;;9.90;1.30;;;;;;;-146.48;100.00;60459.00;5343927;28;20031;-69
2021/12/10 02:43:12;;;;;;;11.48;1.38;;;;;;;-146.48;100.00;60459.00;5345320;27;20084;-69
2021/12/10 02:45:47;;;;;;;6.50;1.40;;;;;;;-146.48;100.00;60459.00;5344907;28;20035;-69
2021/12/10 02:48:18;;;;;;;8.93;1.35;;;;;;;-146.48;100.00;60459.00;5344290;28;20043;-69
2021/12/10 02:50:52;;;;;;;8.80;1.35;;;;;;;-146.48;100.00;60459.00;5344726;28;20034;-69
2021/12/10 02:53:27;;;;;;;8.02;1.10;;;;;;;-146.48;100.00;60459.00;5345205;27;20030;-69
2021/12/10 02:55:59;;;;;;;7.85;0.60;;;;;;;-146.48;100.00;60459.00;5344312;28;20110;-69
2021/12/10 02:58:31;;;;;;;6.25;1.10;;;;;;;-146.48;100.00;60459.00;5345118;28;20103;-69
2021/12/10 03:01:19;;;;;;;9.93;1.00;;;;;;;-146.48;100.00;60459.00;5343637;27;20546;-69
2021/12/10 03:03:50;;;;;;;8.35;1.55;;;;;;;-146.48;100.00;60459.00;5344237;27;20027;-69
2021/12/10 03:06:22;;;;;;;6.50;1.00;;;;;;;-146.48;100.00;60459.00;5345104;27;20455;-70
2021/12/10 03:08:55;;;;;;;4.68;0.77;;;;;;;-146.48;100.00;60459.00;5343528;28;20024;-70
2021/12/10 03:11:32;;;;;;;7.13;1.08;;;;;;;-146.48;100.00;60459.00;5345050;27;20023;-70
2021/12/10 03:14:09;;;;;;;5.35;0.90;;;;;;;-146.48;100.00;60459.00;5344514;28;20061;-70
2021/12/10 03:16:42;;;;;;;7.88;0.75;;;;;;;-146.48;100.00;60459.00;5344105;27;20019;-70
2021/12/10 03:19:13;;;;;;;6.60;0.80;;;;;;;-146.48;100.00;60459.00;5345030;28;20039;-70
2021/12/10 03:21:45;;;;;;;7.00;1.00;;;;;;;-146.48;100.00;60459.00;5344505;27;20451;-70
2021/12/10 03:24:25;;;;;;;7.97;1.60;;;;;;;-146.48;100.00;60459.00;5344251;28;20027;-69
2021/12/10 03:27:00;;;;;;;5.13;1.17;;;;;;;-146.48;100.00;60459.00;5344549;28;20031;-69
2021/12/10 03:29:35;;;;;;;4.88;0.88;;;;;;;-146.48;100.00;60459.00;5344262;28;20379;-69
2021/12/10 03:32:13;;;;;;;6.30;0.60;;;;;;;-146.48;100.00;60459.00;5344303;27;20114;-69
2021/12/10 03:34:45;;;;;;;4.13;0.95;;;;;;;-146.48;100.00;60459.00;5344439;27;20023;-70
2021/12/10 03:37:19;;;;;;;7.32;0.80;;;;;;;-146.48;100.00;60459.00;5344308;27;20019;-69
2021/12/10 03:39:51;;;;;;;5.35;0.88;;;;;;;-146.48;100.00;60459.00;5345846;27;20036;-69
2021/12/10 03:42:23;;;;;;;4.68;0.90;;;;;;;-146.48;100.00;60459.00;5348916;27;20023;-69
2021/12/10 03:44:54;;;;;;;6.95;1.02;;;;;;;-146.48;100.00;60459.00;5347398;27;20033;-69
2021/12/10 03:47:25;;;;;;;5.97;0.73;;;;;;;-146.48;100.00;60459.00;5348617;27;20065;-69
2021/12/10 03:49:57;;;;;;;4.22;0.85;;;;;;;-146.48;100.00;60459.00;5347857;27;20058;-70
2021/12/10 03:52:28;;;;;;;6.18;0.80;;;;;;;-146.48;100.00;60459.00;5347953;27;20027;-70
2021/12/10 03:55:00;;;;;;;8.18;0.90;;;;;;;-146.48;100.00;60459.00;5348029;27;20029;-69
2021/12/10 03:57:32;;;;;;;7.82;0.60;;;;;;;-146.48;100.00;60459.00;5347654;27;20524;-69
2021/12/10 04:00:05;;;;;;;5.10;0.70;;;;;;;-146.48;100.00;60459.00;5347793;27;20011;-69
2021/12/10 04:02:37;;;;;;;5.53;0.85;;;;;;;-146.48;100.00;60459.00;5347989;27;20022;-70
2021/12/10 04:05:08;;;;;;;5.88;0.70;;;;;;;-146.48;100.00;60459.00;5347558;27;20027;-69
2021/12/10 04:07:40;;;;;;;9.05;1.45;;;;;;;-146.48;100.00;60459.00;5347726;27;20054;-70
2021/12/10 04:10:13;;;;;;;7.05;0.85;;;;;;;-146.48;100.00;60459.00;5348146;27;20026;-69
2021/12/10 04:12:45;;;;;;;7.00;0.98;;;;;;;-146.48;100.00;60459.00;5346992;27;20023;-70
2021/12/10 04:15:20;;;;;;;6.13;0.82;;;;;;;-146.48;100.00;60459.00;5348296;27;20015;-70
2021/12/10 04:17:55;;;;;;;4.13;0.70;;;;;;;-146.48;100.00;60459.00;5347578;27;20160;-69
2021/12/10 04:20:30;;;;;;;6.90;1.00;;;;;;;-146.48;100.00;60459.00;5347092;27;20053;-69
2021/12/10 04:23:05;;;;;;;5.10;0.90;;;;;;;-146.48;100.00;60459.00;5347297;27;20413;-69
2021/12/10 04:25:38;;;;;;;6.82;1.05;;;;;;;-146.48;100.00;60459.00;5346714;27;20109;-70
2021/12/10 04:28:12;;;;;;;9.65;1.00;;;;;;;-146.48;100.00;60459.00;5348158;27;20050;-69
2021/12/10 04:30:46;;;;;;;5.38;0.80;;;;;;;-146.48;100.00;60459.00;5347281;27;20482;-69
2021/12/10 04:33:22;;;;;;;7.38;0.98;;;;;;;-146.48;100.00;60459.00;5346830;27;20039;-69
2021/12/10 04:35:58;;;;;;;6.82;1.25;;;;;;;-146.48;100.00;60459.00;5347248;27;20019;-69
2021/12/10 04:38:33;;;;;;;6.70;0.90;;;;;;;-146.48;100.00;60459.00;5347695;27;20028;-69
2021/12/10 04:41:08;;;;;;;6.93;1.10;;;;;;;-146.48;100.00;60459.00;5346272;27;20031;-69
2021/12/10 04:43:41;;;;;;;5.78;1.10;;;;;;;-146.48;100.00;60459.00;5346729;27;20033;-70
2021/12/10 04:46:13;;;;;;;6.25;0.80;;;;;;;-146.48;100.00;60459.00;5347590;27;20034;-69
2021/12/10 04:48:57;;;;;;;8.55;0.70;;;;;;;-146.48;100.00;60459.00;5346079;27;20047;-70
2021/12/10 04:51:36;;;;;;;5.85;0.80;;;;;;;-146.48;100.00;60459.00;5347115;27;20038;-69
2021/12/10 04:54:09;;;;;;;7.68;0.80;;;;;;;-146.48;100.00;60459.00;5346131;27;20042;-69
2021/12/10 04:56:41;;;;;;;5.10;0.80;;;;;;;-146.48;100.00;60459.00;5346769;27;20121;-69
2021/12/10 04:59:16;;;;;;;4.53;0.65;;;;;;;-146.48;100.00;60459.00;5347264;27;20023;-69
2021/12/10 05:01:48;;;;;;;4.85;0.70;;;;;;;-146.48;100.00;60459.00;5345767;27;20490;-69
2021/12/10 05:04:20;;;;;;;9.57;1.65;;;;;;;-146.48;100.00;60459.00;5347062;27;20027;-69
2021/12/10 05:06:52;;;;;;;6.32;1.23;;;;;;;-146.48;100.00;60459.00;5346303;27;20023;-69
2021/12/10 05:09:23;;;;;;;7.40;0.70;;;;;;;-146.48;100.00;60459.00;5346379;27;20324;-69
2021/12/10 05:11:56;;;;;;;6.05;1.00;;;;;;;-146.48;100.00;60459.00;5346240;27;20058;-69
2021/12/10 05:14:30;;;;;;;6.70;0.80;;;;;;;-146.48;100.00;60459.00;5346847;27;20355;-69
2021/12/10 05:17:06;;;;;;;8.82;1.85;;;;;;;-146.48;100.00;60459.00;5345468;27;20023;-69
2021/12/10 05:19:41;;;;;;;6.93;0.85;;;;;;;-146.48;100.00;60459.00;5346369;27;20030;-69
2021/12/10 05:22:13;;;;;;;5.22;0.75;;;;;;;-146.48;100.00;60459.00;5346011;27;20501;-69
2021/12/10 05:24:44;;;;;;;5.13;0.77;;;;;;;-146.48;100.00;60459.00;5346080;27;20019;-69
2021/12/10 05:27:15;;;;;;;5.47;1.15;;;;;;;-146.48;100.00;60459.00;5346490;27;20032;-69
2021/12/10 05:29:47;;;;;;;7.63;0.93;;;;;;;-146.48;100.00;60459.00;5345352;27;20019;-70
2021/12/10 05:32:19;;;;;;;10.32;1.48;;;;;;;-146.48;100.00;60459.00;5346140;27;20023;-70
2021/12/10 05:34:50;;;;;;;4.60;1.00;;;;;;;-146.48;100.00;60459.00;5345687;27;20539;-69
2021/12/10 05:37:22;;;;;;;6.43;1.60;;;;;;;-146.48;100.00;60459.00;5345680;27;20351;-69
2021/12/10 05:39:53;;;;;;;5.88;1.20;;;;;;;-146.48;100.00;60459.00;5345738;27;20027;-69
2021/12/10 05:42:25;;;;;;;8.23;1.00;;;;;;;-146.48;100.00;60459.00;5346432;27;20023;-69
2021/12/10 05:44:56;;;;;;;6.05;1.08;;;;;;;-146.48;100.00;60459.00;5344919;27;20281;-69
2021/12/10 05:47:28;;;;;;;5.47;1.00;;;;;;;-146.48;100.00;60459.00;5346722;27;20019;-69
2021/12/10 05:49:59;;;;;;;6.80;1.10;;;;;;;-146.48;100.00;60459.00;5344629;27;20046;-69
2021/12/10 05:52:31;;;;;;;6.18;1.05;;;;;;;-146.48;100.00;60459.00;5345840;27;20051;-69
2021/12/10 05:55:03;;;;;;;6.60;0.70;;;;;;;-146.48;100.00;60459.00;5345348;27;20019;-69
2021/12/10 05:57:35;;;;;;;6.38;0.90;;;;;;;-146.48;100.00;60459.00;5345203;27;20034;-69
2021/12/10 06:00:12;;;;;;;6.05;0.80;;;;;;;-146.48;100.00;60459.00;5345263;27;20135;-69
2021/12/10 06:02:44;;;;;;;6.70;0.95;;;;;;;-146.48;100.00;60459.00;5344560;27;20031;-68
2021/12/10 06:05:16;;;;;;;5.43;0.93;;;;;;;-146.48;100.00;60459.00;5344897;27;20407;-68
2021/12/10 06:07:48;;;;;;;5.45;1.17;;;;;;;-146.48;100.00;60459.00;5345103;27;20418;-69
2021/12/10 06:10:21;;;;;;;5.55;1.02;;;;;;;-146.48;100.00;60459.00;5345424;27;20363;-68
2021/12/10 06:12:52;;;;;;;5.55;1.27;;;;;;;-146.48;100.00;60459.00;5344142;27;20424;-69
2021/12/10 06:15:25;;;;;;;8.30;0.70;;;;;;;-146.48;100.00;60459.00;5345449;27;20072;-69
2021/12/10 06:17:57;;;;;;;6.30;0.85;;;;;;;-146.48;100.00;60459.00;5344376;27;20406;-69
2021/12/10 06:20:32;;;;;;;4.45;0.65;;;;;;;-146.48;100.00;60459.00;5345690;27;20019;-69
2021/12/10 06:23:04;;;;;;;5.53;0.75;;;;;;;-146.48;100.00;60459.00;5344861;27;20031;-69
2021/12/10 06:25:37;;;;;;;5.00;1.15;;;;;;;-146.48;100.00;60459.00;5344842;27;20389;-68
2021/12/10 06:28:09;;;;;;;5.88;0.70;;;;;;;-146.48;100.00;60459.00;5345839;27;20031;-69
2021/12/10 06:30:43;;;;;;;6.85;0.80;;;;;;;-146.48;100.00;60459.00;5345127;27;20343;-69
2021/12/10 06:33:16;;;;;;;5.38;0.80;;;;;;;-146.48;100.00;60459.00;5344781;27;20359;-69
2021/12/10 06:35:50;;;;;;;6.80;0.80;;;;;;;-146.48;100.00;60459.00;5344808;27;20031;-69
2021/12/10 06:38:23;;;;;;;3.53;0.82;;;;;;;-146.48;100.00;60459.00;5345326;27;20370;-69
2021/12/10 06:40:55;;;;;;;6.53;1.00;;;;;;;-146.48;100.00;60459.00;5344011;27;20385;-69
2021/12/10 06:43:27;;;;;;;6.63;1.15;;;;;;;-146.48;100.00;60459.00;5345349;28;20031;-69
2021/12/10 06:46:00;;;;;;;6.88;1.48;;;;;;;-146.48;100.00;60459.00;5344397;28;20557;-69
2021/12/10 06:48:34;;;;;;;5.32;0.80;;;;;;;-146.48;100.00;60459.00;5345098;28;20043;-69
2021/12/10 06:51:12;;;;;;;4.80;0.70;;;;;;;-146.48;100.00;60459.00;5344868;27;20379;-69
2021/12/10 06:53:44;;;;;;;7.10;0.80;;;;;;;-146.48;100.00;60459.00;5343975;28;20031;-70
2021/12/10 06:56:17;;;;;;;5.70;0.93;;;;;;;-146.48;100.00;60459.00;5345147;27;20027;-69
2021/12/10 06:58:49;;;;;;;9.38;1.00;;;;;;;-146.48;100.00;60459.00;5344443;27;20043;-69
2021/12/10 07:01:28;;;;;;;6.07;1.42;;;;;;;-146.48;100.00;60459.00;5344411;27;20023;-69
2021/12/10 07:04:00;;;;;;;;;;;;;;;-146.48;100.00;60459.00;5345186;27;20026;-69
2021/12/10 07:06:32;;;;;;;6.53;1.35;;;;;;;-146.48;100.00;60459.00;5345283;27;19915;-69
2021/12/10 07:09:09;;;;;;;10.10;0.90;;;;;;;-146.48;100.00;60459.00;5343656;27;20084;-69
2021/12/10 07:11:41;;;;;;;3.75;1.13;;;;;;;-146.48;100.00;60459.00;5344251;27;20467;-70
2021/12/10 07:14:12;;;;;;;8.80;0.90;;;;;;;-146.48;100.00;60459.00;5346266;27;20035;-70
2021/12/10 07:16:46;;;;;;;6.47;1.02;;;;;;;-146.48;100.00;60459.00;5348656;27;20034;-70
2021/12/10 07:19:18;;;;;;;6.70;1.27;;;;;;;-146.48;100.00;60459.00;5349339;27;20050;-69
2021/12/10 07:21:49;;;;;;;7.57;1.45;;;;;;;-146.48;100.00;60459.00;5347657;27;20031;-69
2021/12/10 07:24:21;;;;;;;8.05;1.23;;;;;;;-146.48;100.00;60459.00;5349219;27;20019;-69
2021/12/10 07:26:52;;;;;;;4.38;0.93;;;;;;;-146.48;100.00;60459.00;5348677;27;20075;-69
2021/12/10 07:29:24;;;;;;;6.10;0.75;;;;;;;-146.48;100.00;60459.00;5348558;27;20071;-69
2021/12/10 07:31:55;;;;;;;5.15;0.82;;;;;;;-146.48;100.00;60459.00;5348067;27;20041;-69
2021/12/10 07:34:27;;;;;;;5.15;1.48;;;;;;;-146.48;100.00;60459.00;5348626;27;20031;-69
2021/12/10 07:36:58;;;;;;;8.95;0.93;;;;;;;-146.48;100.00;60459.00;5347634;27;20015;-69
2021/12/10 07:39:30;;;;;;;10.35;0.80;;;;;;;-146.48;100.00;60459.00;5348770;27;20029;-69
2021/12/10 07:42:02;;;;;;;6.05;1.00;;;;;;;-146.48;100.00;60459.00;5348252;27;20393;-69
2021/12/10 07:44:35;;;;;;;5.50;1.40;;;;;;;-146.48;100.00;60459.00;5348087;27;20016;-69
2021/12/10 07:47:11;;;;;;;13.77;2.25;;;;;;;-146.48;100.00;60459.00;5347813;27;20023;-69
2021/12/10 07:49:44;;;;;;;9.00;1.00;;;;;;;-146.48;100.00;60459.00;5347096;27;20501;-70
2021/12/10 07:52:24;;;;;;;10.30;0.82;;;;;;;-146.48;100.00;60459.00;5348609;27;20390;-69
2021/12/10 07:54:55;;;;;;;4.15;0.50;;;;;;;-146.48;100.00;60459.00;5348224;27;20035;-70
2021/12/10 07:57:27;;;;;;;5.55;0.60;;;;;;;-146.48;100.00;60459.00;5347596;27;20039;-69
2021/12/10 07:59:58;;;;;;;6.05;0.60;;;;;;;-146.48;100.00;60459.00;5348055;27;20119;-69
2021/12/10 08:02:30;;;;;;;5.25;0.60;;;;;;;-146.48;100.00;60459.00;5348401;27;20066;-69
2021/12/10 08:05:01;;;;;;;6.35;0.85;;;;;;;-146.48;100.00;60459.00;5347252;27;20023;-70
2021/12/10 08:07:33;;;;;;;5.28;0.70;;;;;;;-146.48;100.00;60459.00;5348338;27;20027;-70
2021/12/10 08:10:06;;;;;;;4.80;0.60;;;;;;;-146.48;100.00;60459.00;5347723;27;20027;-70
2021/12/10 08:12:38;;;;;;;5.80;0.80;;;;;;;-146.48;100.00;60459.00;5346833;27;20509;-70
2021/12/10 08:15:11;;;;;;;5.43;0.60;;;;;;;-146.48;100.00;60459.00;5346087;27;20057;-70
2021/12/10 08:17:43;;;;;;;6.53;0.70;;;;;;;-146.48;100.00;60459.00;5345140;27;20256;-69
2021/12/10 08:20:19;;;;;;;10.18;0.85;;;;;;;-146.48;100.00;60459.00;5346591;27;20484;-69
2021/12/10 08:22:52;;;;;;;7.90;0.70;;;;;;;-146.48;100.00;60459.00;5346308;27;20026;-69
2021/12/10 08:25:25;;;;;;;5.00;0.40;;;;;;;-146.48;100.00;60459.00;5345103;27;20037;-69
2021/12/10 08:27:57;;;;;;;8.75;0.70;;;;;;;-146.48;100.00;60459.00;5345561;27;20062;-70
2021/12/10 08:30:30;;;;;;;8.38;0.60;;;;;;;-146.48;100.00;60459.00;5346503;27;20023;-70
2021/12/10 08:33:02;;;;;;;9.68;0.88;;;;;;;-146.48;100.00;60459.00;5345531;27;20431;-69
2021/12/10 08:35:33;;;;;;;9.95;1.15;;;;;;;-146.48;100.00;60459.00;5346606;27;20167;-70
2021/12/10 08:38:05;;;;;;;7.20;0.98;;;;;;;-146.48;100.00;60459.00;5345905;27;20034;-69
2021/12/10 08:40:44;;;;;;;6.80;0.70;;;;;;;-146.48;100.00;60459.00;5344604;27;20038;-69
2021/12/10 08:43:16;;;;;;;4.63;0.60;;;;;;;-146.48;100.00;60459.00;5346373;27;20068;-69
2021/12/10 08:45:47;;;;;;;9.23;1.17;;;;;;;-146.48;100.00;60459.00;5344935;27;20111;-70
2021/12/10 08:48:23;;;;;;;6.18;0.60;;;;;;;-146.48;100.00;60459.00;5346169;27;20042;-70
2021/12/10 08:50:58;;;;;;;10.18;1.17;;;;;;;-146.48;100.00;60459.00;5345565;27;20390;-69
2021/12/10 08:53:29;;;;;;;6.57;0.70;;;;;;;-146.48;100.00;60459.00;5344839;27;20518;-70
2021/12/10 08:56:01;;;;;;;10.75;0.90;;;;;;;-146.48;100.00;60459.00;5345415;27;20038;-69
2021/12/10 08:58:33;;;;;;;4.25;0.60;;;;;;;-146.48;100.00;60459.00;5345737;27;20430;-69
2021/12/10 09:01:15;;;;;;;5.47;0.63;;;;;;;-146.48;100.00;60459.00;5344747;27;20652;-70
2021/12/10 09:03:49;;;;;;;8.77;1.15;;;;;;;-146.48;100.00;60459.00;5345331;27;20027;-69
2021/12/10 09:06:23;;;;;;;8.02;1.75;;;;;;;-146.48;100.00;60459.00;5345158;27;20031;-70
2021/12/10 09:08:56;;;;;;;7.65;0.93;;;;;;;-146.48;100.00;60459.00;5344639;27;20054;-71
2021/12/10 09:11:28;;;;;;;6.35;0.68;;;;;;;-146.48;100.00;60459.00;5345794;27;20091;-71
2021/12/10 09:13:59;;;;;;;8.40;0.90;;;;;;;-146.48;100.00;60459.00;5345680;27;20053;-71
2021/12/10 09:16:31;;;;;;;7.40;1.10;;;;;;;-146.48;100.00;60459.00;5346888;27;20148;-71
2021/12/10 09:19:06;;;;;;;5.78;0.80;;;;;;;-146.48;100.00;60459.00;5346328;27;20020;-70
2021/12/10 09:21:38;;;;;;;7.53;0.70;;;;;;;-146.48;100.00;60459.00;5344703;27;20027;-70
2021/12/10 09:24:12;;;;;;;4.20;0.70;;;;;;;-146.48;100.00;60459.00;5346837;27;20435;-70
2021/12/10 09:26:46;;;;;;;7.03;1.00;;;;;;;-146.48;100.00;60459.00;5344684;27;20131;-70
2021/12/10 09:29:18;;;;;;;5.75;0.90;;;;;;;-146.48;100.00;60459.00;5345375;27;20023;-69
2021/12/10 09:31:49;;;;;;;8.02;0.80;;;;;;;-146.48;100.00;60459.00;5345897;27;20026;-70
2021/12/10 09:34:21;;;;;;;4.07;0.75;;;;;;;-146.48;100.00;60459.00;5346464;27;20474;-69
2021/12/10 09:36:54;;;;;;;8.15;0.93;;;;;;;-146.48;100.00;60459.00;5344174;27;20485;-70
2021/12/10 09:39:26;;;;;;;4.70;0.60;;;;;;;-146.48;100.00;60459.00;5346300;27;20110;-70
2021/12/10 09:41:58;;;;;;;8.55;1.60;;;;;;;-146.48;100.00;60459.00;5345211;27;20088;-70
2021/12/10 09:44:30;;;;;;;7.25;1.58;;;;;;;-146.48;100.00;60459.00;5345660;27;20020;-69
2021/12/10 09:47:04;;;;;;;5.65;1.67;;;;;;;-146.48;100.00;60459.00;5345547;27;20035;-69
2021/12/10 09:49:35;;;;;;;8.90;1.00;;;;;;;-146.48;100.00;60459.00;5345024;27;20376;-69
2021/12/10 09:52:07;;;;;;;4.63;0.90;;;;;;;-146.48;100.00;60459.00;5343555;27;20050;-69
2021/12/10 09:54:39;;;;;;;7.82;1.10;;;;;;;-146.48;100.00;60459.00;5342733;27;20034;-69
2021/12/10 09:57:15;;;;;;;8.07;0.90;;;;;;;-146.48;100.00;60459.00;5344121;27;20023;-68
2021/12/10 09:59:50;;;;;;;6.82;0.82;;;;;;;-146.48;100.00;60459.00;5343863;27;20039;-67
2021/12/10 10:02:23;;;;;;;3.65;0.90;;;;;;;-146.48;100.00;60459.00;5344456;27;20032;-68
2021/12/10 10:04:56;;;;;;;7.68;0.80;;;;;;;-146.48;100.00;60459.00;5343487;27;20102;-68
2021/12/10 10:07:29;;;;;;;6.70;1.15;;;;;;;-146.48;100.00;60459.00;5343770;27;20159;-67
2021/12/10 10:10:10;;;;;;;4.50;0.73;;;;;;;-146.48;100.00;60459.00;5342775;27;20087;-68
2021/12/10 10:12:45;;;;;;;7.72;1.42;;;;;;;-146.48;100.00;60459.00;5343956;27;20485;-68
2021/12/10 10:15:22;;;;;;;9.48;0.85;;;;;;;-146.48;100.00;60459.00;5344818;27;20143;-67
2021/12/10 10:18:01;;;;;;;5.95;1.00;;;;;;;-146.48;100.00;60459.00;5343176;27;20034;-67
2021/12/10 10:20:35;;;;;;;5.75;0.70;;;;;;;-146.48;100.00;60459.00;5343800;27;20118;-68
2021/12/10 10:23:09;;;;;;;5.18;0.70;;;;;;;-146.48;100.00;60459.00;5343613;27;20035;-69
2021/12/10 10:25:44;;;;;;;7.95;0.77;;;;;;;-146.48;100.00;60459.00;5343139;27;20030;-68
2021/12/10 10:28:16;;;;;;;5.82;0.70;;;;;;;-146.48;100.00;60459.00;5344548;27;20390;-69
2021/12/10 10:30:58;;;;;;;7.80;0.80;;;;;;;-146.48;100.00;60459.00;5343719;27;20098;-69
2021/12/10 10:33:32;;;;;;;5.28;0.90;;;;;;;-146.48;100.00;60459.00;5343009;27;20027;-69
2021/12/10 10:36:11;;;;;;;7.22;0.80;;;;;;;-146.48;100.00;60459.00;5343627;27;20027;-69
2021/12/10 10:38:47;;;;;;;6.05;0.77;;;;;;;-146.48;100.00;60459.00;5343140;27;20024;-69
2021/12/10 10:41:20;;;;;;;5.35;0.93;;;;;;;-146.48;100.00;60459.00;5344348;27;20038;-69
2021/12/10 10:43:51;;;;;;;4.05;0.60;;;;;;;-146.48;100.00;60459.00;5343447;27;20031;-69
2021/12/10 10:46:24;;;;;;;7.45;0.80;;;;;;;-146.48;100.00;60459.00;5343084;27;20579;-69
2021/12/10 10:48:55;;;;;;;6.00;0.70;;;;;;;-146.48;100.00;60459.00;5345516;27;20040;-69
2021/12/10 10:51:38;;;;;;;6.68;0.70;;;;;;;-146.48;100.00;60459.00;5348803;27;20046;-69
2021/12/10 10:54:11;;;;;;;8.30;1.17;;;;;;;-146.48;100.00;60459.00;5348020;27;20015;-69
2021/12/10 10:56:46;;;;;;;2.83;0.60;;;;;;;-146.48;100.00;60459.00;5347955;27;20529;-70
2021/12/10 10:59:24;;;;;;;3.50;1.13;;;;;;;-146.48;100.00;60459.00;5348152;27;20051;-69
2021/12/10 11:02:06;;;;;;;6.32;0.68;;;;;;;-146.48;100.00;60459.00;5348016;27;20047;-71
2021/12/10 11:04:45;;;;;;;4.80;0.77;;;;;;;-146.48;100.00;60459.00;5347817;27;20019;-69
2021/12/10 11:07:25;;;;;;;5.82;0.70;;;;;;;-146.48;100.00;60459.00;5347949;27;20530;-69
2021/12/10 11:10:02;;;;;;;7.20;1.25;;;;;;;-146.48;100.00;60459.00;5347972;27;20582;-69
2021/12/10 11:12:37;;;;;;;5.00;0.60;;;;;;;-146.48;100.00;60459.00;5347797;27;20054;-69
2021/12/10 11:15:16;;;;;;;3.63;0.50;;;;;;;-146.48;100.00;60459.00;5347406;27;20102;-69
2021/12/10 11:17:51;;;;;;;7.97;1.40;;;;;;;-146.48;100.00;60459.00;5347469;27;20394;-69
2021/12/10 11:20:34;;;;;;;6.40;0.60;;;;;;;-146.48;100.00;60459.00;5347301;27;20024;-69
2021/12/10 11:23:08;;;;;;;5.13;0.60;;;;;;;-146.48;100.00;60459.00;5347524;27;20058;-70
2021/12/10 11:25:42;;;;;;;4.90;0.70;;;;;;;-146.48;100.00;60459.00;5346781;27;20023;-71
2021/12/10 11:28:18;;;;;;;5.03;0.90;;;;;;;-146.48;100.00;60459.00;5347361;27;20031;-69
2021/12/10 11:31:03;;;;;;;13.57;0.95;;;;;;;-146.48;100.00;60459.00;5347505;27;20599;-70
2021/12/10 11:33:39;;;;;;;4.80;0.60;;;;;;;-146.48;100.00;60459.00;5347838;27;20327;-70
2021/12/10 11:36:18;;;;;;;8.15;1.00;;;;;;;-146.48;100.00;60459.00;5347055;27;20055;-70
2021/12/10 11:38:55;;;;;;;4.15;0.80;;;;;;;-146.48;100.00;60459.00;5346993;27;20037;-70
2021/12/10 11:41:30;;;;;;;5.35;1.15;;;;;;;-146.48;100.00;60459.00;5347103;27;20069;-70
2021/12/10 11:49:45;;;;;;;8.95;0.73;;;;;;;-146.48;100.00;60459.00;5346620;27;20122;-69
2021/12/10 11:52:21;;;;;;;5.95;0.93;;;;;;;-146.48;100.00;60459.00;5324568;27;20191;-70
2021/12/10 11:55:07;;;;;;;6.65;1.13;;;;;;;-146.48;100.00;60459.00;5346723;27;20034;-70
2021/12/10 11:57:42;;;;;;;5.35;0.73;;;;;;;-146.48;100.00;60459.00;5345980;27;20023;-71
2021/12/10 12:00:16;;;;;;;6.30;0.88;;;;;;;-146.48;100.00;60459.00;5346323;27;20019;-70